createdAt,value
2022-11-26T00:02:24.024Z,5.32
2022-11-26T00:07:29.957Z,5.29
2022-11-26T00:12:35.361Z,5.27
2022-11-26T00:17:39.631Z,5.22
2022-11-26T00:22:45.170Z,5.18
2022-11-26T00:27:49.283Z,5.15
2022-11-26T00:32:54.245Z,5.11
2022-11-26T00:37:59.754Z,5.07
2022-11-26T00:43:02.705Z,5.03
2022-11-26T00:48:07.504Z,5.02
2022-11-26T00:53:15.053Z,4.99
2022-11-26T00:58:25.664Z,4.98
2022-11-26T01:03:30.651Z,4.94
2022-11-26T01:08:36.983Z,4.92
2022-11-26T01:13:40.086Z,4.88
2022-11-26T01:18:44.618Z,4.87
2022-11-26T01:23:48.026Z,4.84
2022-11-26T01:28:51.558Z,4.79
2022-11-26T01:33:56.816Z,4.76
2022-11-26T01:39:01.389Z,4.73
2022-11-26T01:44:07.105Z,4.71
2022-11-26T01:49:25.632Z,4.68
2022-11-26T01:54:29.117Z,4.63
2022-11-26T01:59:36.418Z,4.63
2022-11-26T02:04:48.537Z,4.60
2022-11-26T02:09:52.401Z,4.57
2022-11-26T02:14:56.662Z,4.55
2022-11-26T02:20:41.512Z,4.54
2022-11-26T02:26:18.930Z,4.54
2022-11-26T02:31:30.905Z,4.52
2022-11-26T02:36:39.721Z,4.50
2022-11-26T02:41:44.491Z,4.49
2022-11-26T02:46:52.710Z,4.47
2022-11-26T02:51:59.736Z,4.44
2022-11-26T02:57:06.094Z,4.40
2022-11-26T03:02:14.892Z,4.39
2022-11-26T03:07:18.565Z,4.39
2022-11-26T03:12:21.891Z,4.38
2022-11-26T03:17:26.407Z,4.42
2022-11-26T03:22:29.522Z,4.42
2022-11-26T03:27:32.905Z,4.43
2022-11-26T03:32:37.428Z,4.48
2022-11-26T03:37:40.701Z,4.49
2022-11-26T03:42:43.747Z,4.45
2022-11-26T03:47:48.044Z,4.43
2022-11-26T03:52:51.074Z,4.44
2022-11-26T03:57:54.072Z,4.47
2022-11-26T04:02:58.483Z,4.49
2022-11-26T04:08:01.488Z,4.50
2022-11-26T04:13:04.740Z,4.54
2022-11-26T04:18:09.164Z,4.52
2022-11-26T04:23:12.273Z,4.53
2022-11-26T04:28:15.553Z,4.55
2022-11-26T04:33:20.211Z,4.53
2022-11-26T04:38:25.999Z,4.50
2022-11-26T04:43:29.400Z,4.46
2022-11-26T04:48:34.096Z,4.42
2022-11-26T04:53:37.232Z,4.41
2022-11-26T04:58:40.365Z,4.37
2022-11-26T05:03:44.760Z,4.36
2022-11-26T05:08:47.983Z,4.37
2022-11-26T05:13:51.040Z,4.39
2022-11-26T05:18:57.815Z,4.38
2022-11-26T05:24:00.769Z,4.37
2022-11-26T05:29:03.891Z,4.39
2022-11-26T05:34:08.431Z,4.37
2022-11-26T05:39:11.655Z,4.38
2022-11-26T05:44:14.642Z,4.37
2022-11-26T05:49:19.069Z,4.39
2022-11-26T05:54:22.286Z,4.40
2022-11-26T05:59:25.397Z,4.39
2022-11-26T06:04:33.052Z,4.39
2022-11-26T06:09:37.168Z,4.37
2022-11-26T06:14:43.336Z,4.37
2022-11-26T06:19:48.102Z,4.36
2022-11-26T06:24:51.013Z,4.33
2022-11-26T06:29:54.111Z,4.31
2022-11-26T06:34:58.513Z,4.32
2022-11-26T06:40:02.025Z,4.29
2022-11-26T06:45:05.782Z,4.30
2022-11-26T06:50:11.171Z,4.27
2022-11-26T06:55:14.193Z,4.26
2022-11-26T07:00:17.908Z,4.29
2022-11-26T07:05:22.304Z,4.35
2022-11-26T07:10:25.341Z,4.42
2022-11-26T07:15:28.424Z,4.48
2022-11-26T07:20:32.896Z,4.50
2022-11-26T07:25:35.962Z,4.55
2022-11-26T07:30:39.292Z,4.58
2022-11-26T07:35:43.769Z,4.61
2022-11-26T07:40:46.854Z,4.65
2022-11-26T07:45:50.053Z,4.69
2022-11-26T07:50:54.448Z,4.74
2022-11-26T07:55:57.612Z,4.80
2022-11-26T08:01:09.919Z,4.86
2022-11-26T08:06:15.993Z,4.95
2022-11-26T08:11:20.674Z,5.00
2022-11-26T08:16:23.984Z,5.12
2022-11-26T08:21:31.443Z,5.25
2022-11-26T08:26:39.680Z,5.35
2022-11-26T08:31:47.001Z,5.44
2022-11-26T08:36:51.424Z,5.54
2022-11-26T08:41:54.525Z,5.59
2022-11-26T08:47:00.602Z,5.70
2022-11-26T08:52:05.393Z,5.85
2022-11-26T08:57:08.475Z,6.00
2022-11-26T09:02:15.969Z,6.14
2022-11-26T09:07:23.098Z,6.22
2022-11-26T09:12:27.271Z,6.31
2022-11-26T09:17:30.316Z,6.45
2022-11-26T09:22:35.278Z,6.56
2022-11-26T09:27:38.257Z,6.65
2022-11-26T09:32:41.346Z,6.73
2022-11-26T09:37:51.212Z,6.77
2022-11-26T09:43:06.807Z,6.88
2022-11-26T09:48:15.409Z,6.96
2022-11-26T09:53:23.452Z,7.08
2022-11-26T09:58:34.331Z,7.09
2022-11-26T10:03:39.077Z,7.24
2022-11-26T10:09:00.723Z,7.50
2022-11-26T10:14:19.909Z,7.57
2022-11-26T10:19:33.794Z,7.51
2022-11-26T10:24:42.293Z,7.58
2022-11-26T10:29:50.563Z,7.75
2022-11-26T10:34:55.366Z,7.92
2022-11-26T10:40:16.779Z,8.11
2022-11-26T10:45:21.987Z,8.22
2022-11-26T10:55:53.111Z,8.31
2022-11-26T11:01:03.419Z,8.42
2022-11-26T11:06:13.354Z,8.56
2022-11-26T11:11:21.584Z,8.65
2022-11-26T11:16:31.292Z,8.81
2022-11-26T11:21:36.807Z,9.04
2022-11-26T11:26:44.409Z,9.24
2022-11-26T11:31:47.836Z,9.38
2022-11-26T11:37:00.910Z,9.39
2022-11-26T11:42:08.836Z,9.53
2022-11-26T11:47:24.519Z,9.57
2022-11-26T11:52:41.088Z,9.56
2022-11-26T11:58:04.236Z,9.53
2022-11-26T12:03:30.049Z,9.52
2022-11-26T12:08:41.655Z,9.68
2022-11-26T12:13:51.044Z,9.76
2022-11-26T12:18:59.445Z,9.82
2022-11-26T12:24:10.542Z,9.90
2022-11-26T12:29:19.563Z,9.99
2022-11-26T12:34:29.932Z,10.05
2022-11-26T12:39:39.817Z,10.19
2022-11-26T12:44:47.993Z,10.30
2022-11-26T12:50:04.372Z,10.46
2022-11-26T12:55:20.648Z,10.60
2022-11-26T13:00:35.551Z,10.80
2022-11-26T13:05:51.284Z,10.86
2022-11-26T13:11:10.041Z,11.02
2022-11-26T13:16:24.946Z,11.17
2022-11-26T13:21:59.355Z,11.20
2022-11-26T13:27:17.356Z,11.15
2022-11-26T13:32:51.471Z,11.10
2022-11-26T13:38:09.965Z,11.17
2022-11-26T13:43:55.914Z,11.26
2022-11-26T13:49:06.137Z,11.33
2022-11-26T13:54:15.403Z,11.19
2022-11-26T13:59:25.381Z,11.09
2022-11-26T14:04:54.808Z,11.08
2022-11-26T14:10:00.256Z,11.03
2022-11-26T14:15:03.302Z,10.94
2022-11-26T14:20:12.140Z,10.87
2022-11-26T14:25:15.703Z,10.92
2022-11-26T14:30:29.780Z,10.99
2022-11-26T14:35:38.516Z,11.03
2022-11-26T14:40:41.676Z,11.04
2022-11-26T14:45:47.190Z,11.01
2022-11-26T14:50:52.133Z,11.02
2022-11-26T14:55:55.955Z,11.02
2022-11-26T15:01:03.987Z,10.86
2022-11-26T15:06:23.854Z,10.69
2022-11-26T15:11:27.105Z,10.51
2022-11-26T15:16:35.087Z,10.38
2022-11-26T15:21:42.119Z,10.27
2022-11-26T15:26:48.287Z,10.12
2022-11-26T15:31:51.392Z,10.00
2022-11-26T15:36:56.036Z,9.86
2022-11-26T15:42:05.805Z,9.76
2022-11-26T15:47:20.228Z,9.63
2022-11-26T15:52:30.586Z,9.51
2022-11-26T15:57:36.679Z,9.39
2022-11-26T16:02:41.057Z,9.35
2022-11-26T16:07:58.095Z,9.28
2022-11-26T16:13:17.433Z,9.22
2022-11-26T16:18:23.510Z,9.15
2022-11-26T16:23:32.427Z,9.12
2022-11-26T16:28:35.551Z,9.06
2022-11-26T16:33:38.549Z,9.00
2022-11-26T16:38:42.959Z,8.97
2022-11-26T16:43:46.025Z,8.93
2022-11-26T16:48:49.799Z,8.89
2022-11-26T16:53:54.183Z,8.83
2022-11-26T16:58:59.796Z,8.75
2022-11-26T17:04:02.743Z,8.71
2022-11-26T17:09:07.199Z,8.69
2022-11-26T17:14:11.794Z,8.66
2022-11-26T17:19:16.387Z,8.63
2022-11-26T17:24:24.696Z,8.60
2022-11-26T17:29:32.248Z,8.54
2022-11-26T17:34:35.670Z,8.53
2022-11-26T17:39:40.607Z,8.47
2022-11-26T17:44:43.877Z,8.42
2022-11-26T17:49:47.670Z,8.40
2022-11-26T17:54:52.015Z,8.34
2022-11-26T17:59:56.003Z,8.29
2022-11-26T18:04:59.124Z,8.20
2022-11-26T18:10:05.373Z,8.10
2022-11-26T18:15:09.500Z,8.04
2022-11-26T18:20:13.056Z,7.99
2022-11-26T18:25:17.456Z,7.97
2022-11-26T18:30:21.429Z,7.95
2022-11-26T18:35:24.512Z,7.93
2022-11-26T18:40:28.956Z,7.87
2022-11-26T18:45:32.724Z,7.85
2022-11-26T18:50:35.985Z,7.79
2022-11-26T18:55:41.834Z,7.72
2022-11-26T19:00:44.965Z,7.67
2022-11-26T19:05:51.642Z,7.60
2022-11-26T19:10:56.090Z,7.54
2022-11-26T19:15:59.347Z,7.53
2022-11-26T19:21:02.729Z,7.46
2022-11-26T19:26:07.084Z,7.40
2022-11-26T19:31:12.399Z,7.36
2022-11-26T19:36:17.807Z,7.30
2022-11-26T19:41:25.566Z,7.22
2022-11-26T19:46:29.729Z,7.17
2022-11-26T19:51:32.853Z,7.17
2022-11-26T19:56:37.681Z,7.12
2022-11-26T20:01:40.762Z,7.08
2022-11-26T20:06:44.710Z,7.05
2022-11-26T20:11:49.256Z,6.99
2022-11-26T20:16:55.147Z,6.97
2022-11-26T20:22:02.572Z,6.95
2022-11-26T20:27:07.037Z,6.96
2022-11-26T20:32:10.073Z,6.94
2022-11-26T20:37:13.094Z,6.94
2022-11-26T20:42:17.421Z,6.96
2022-11-26T20:47:20.392Z,6.98
2022-11-26T20:52:24.282Z,6.99
2022-11-26T20:57:31.062Z,6.97
2022-11-26T21:02:34.444Z,6.95
2022-11-26T21:07:37.561Z,6.93
2022-11-26T21:12:41.974Z,6.90
2022-11-26T21:17:45.070Z,6.85
2022-11-26T21:22:48.147Z,6.77
2022-11-26T21:27:55.692Z,6.68
2022-11-26T21:32:58.882Z,6.68
2022-11-26T21:38:02.167Z,6.63
2022-11-26T21:43:06.617Z,6.66
2022-11-26T21:48:09.695Z,6.69
2022-11-26T21:53:12.700Z,6.70
2022-11-26T21:58:17.349Z,6.72
2022-11-26T22:03:20.645Z,6.73
2022-11-26T22:08:23.635Z,6.71
2022-11-26T22:13:28.259Z,6.71
2022-11-26T22:18:31.260Z,6.69
2022-11-26T22:23:34.591Z,6.68
2022-11-26T22:28:39.795Z,6.63
2022-11-26T22:33:42.923Z,6.67
2022-11-26T22:38:46.159Z,6.63
2022-11-26T22:43:51.156Z,6.66
2022-11-26T22:48:55.685Z,6.66
2022-11-26T22:54:00.679Z,6.66
2022-11-26T22:59:06.198Z,6.67
2022-11-26T23:04:11.135Z,6.65
2022-11-26T23:09:14.754Z,6.62
2022-11-26T23:14:19.249Z,6.61
2022-11-26T23:19:22.322Z,6.62
2022-11-26T23:24:26.957Z,6.59
2022-11-26T23:29:34.737Z,6.60
2022-11-26T23:34:37.791Z,6.59
2022-11-26T23:39:41.096Z,6.52
2022-11-26T23:44:45.800Z,6.43
2022-11-26T23:49:48.751Z,6.33
2022-11-26T23:54:51.788Z,6.30
2022-11-26T23:59:56.303Z,6.25
